This is the latest recevied weather packets stored in our database for station/object SQ7KHZ-10. If no packets are shown the sender has not sent any weather packets the latest 10 day(s).
| Time | Temp. | Humidity | Pressure | Rain* | Wind** | Luminosity | Snow |
|---|---|---|---|---|---|---|---|
| 1777478880 | 7.78° C | 46% | 1027.8 hPa | 0 mm | - | - | - |
| 1777477676 | 7.22° C | 53% | 1027.7 hPa | 0 mm | - | - | - |
| 1777476466 | 8.89° C | 44% | 1027.7 hPa | 0 mm | - | - | - |
| 1777475256 | 7.22° C | 51% | 1027.8 hPa | 0 mm | - | - | - |
| 1777474049 | 8.33° C | 49% | 1027.8 hPa | 0 mm | - | - | - |
| 1777472839 | 7.78° C | 46% | 1027.8 hPa | 0 mm | - | - | - |
| 1777471628 | 7.78° C | 50% | 1027.8 hPa | 0 mm | - | - | - |
| 1777470426 | 7.78° C | 49% | 1027.8 hPa | 0 mm | - | - | - |
| 1777469224 | 7.22° C | 51% | 1027.8 hPa | 0 mm | - | - | - |
| 1777468022 | 7.78° C | 51% | 1027.9 hPa | 0 mm | - | - | - |
| 1777466812 | 6.67° C | 54% | 1028 hPa | 0 mm | - | - | - |
| 1777465608 | 6.11° C | 54% | 1028.1 hPa | 0 mm | - | - | - |
| 1777464406 | 6.67° C | 53% | 1028.1 hPa | 0 mm | - | - | - |
| 1777463201 | 6.67° C | 53% | 1027.9 hPa | 0 mm | - | - | - |
| 1777462001 | 6.11° C | 54% | 1027.9 hPa | 0 mm | - | - | - |
| 1777460796 | 6.67° C | 53% | 1027.7 hPa | 0 mm | - | - | - |
| 1777459595 | 7.22° C | 49% | 1027.8 hPa | 0 mm | - | - | - |
| 1777458392 | 7.78° C | 49% | 1027.6 hPa | 0 mm | - | - | - |
| 1777457186 | 7.22° C | 50% | 1027.5 hPa | 0 mm | - | - | - |
| 1777455956 | 6.11° C | 50% | 1027.5 hPa | 0 mm | - | - | - |
| 1777454754 | 6.11° C | 49% | 1027.5 hPa | 0 mm | - | - | - |
| 1777453538 | 7.22° C | 49% | 1027.4 hPa | 0 mm | - | - | - |
| 1777452335 | 5.56° C | 51% | 1027.5 hPa | 0 mm | - | - | - |
| 1777451132 | 6.11° C | 51% | 1027.5 hPa | 0 mm | - | - | - |
| 1777449928 | 6.11° C | 51% | 1027.4 hPa | 0 mm | - | - | - |
* Rain latest hour (hover to see other rain measurements)
** Current wind speed in m/s (hover to see current wind gust speed)